createdAt,value
2022-09-13T00:02:15.675Z,98.08
2022-09-13T00:04:42.639Z,98.13
2022-09-13T00:07:09.277Z,98.14
2022-09-13T00:09:37.543Z,98.25
2022-09-13T00:12:04.692Z,98.38
2022-09-13T00:14:31.456Z,98.47
2022-09-13T00:16:58.424Z,98.41
2022-09-13T00:19:25.330Z,98.41
2022-09-13T00:21:51.958Z,98.40
2022-09-13T00:24:18.684Z,98.40
2022-09-13T00:26:45.849Z,98.43
2022-09-13T00:29:12.505Z,98.49
2022-09-13T00:31:39.252Z,98.52
2022-09-13T00:34:06.196Z,98.57
2022-09-13T00:36:32.852Z,98.60
2022-09-13T00:39:01.131Z,98.61
2022-09-13T00:41:28.195Z,98.73
2022-09-13T00:43:58.404Z,98.78
2022-09-13T00:46:41.548Z,98.88
2022-09-13T00:49:36.539Z,99.01
2022-09-13T00:52:08.544Z,99.07
2022-09-13T00:54:41.253Z,99.11
2022-09-13T00:57:11.507Z,99.20
2022-09-13T00:59:45.226Z,99.26
2022-09-13T01:02:12.789Z,99.32
2022-09-13T01:04:40.661Z,99.37
2022-09-13T01:07:09.917Z,99.43
2022-09-13T01:09:41.518Z,99.55
2022-09-13T01:12:15.279Z,99.73
2022-09-13T01:14:43.542Z,99.68
2022-09-13T01:17:10.392Z,99.72
2022-09-13T01:19:37.204Z,99.90
2022-09-13T01:22:17.601Z,100.00
2022-09-13T01:25:06.739Z,100.00
2022-09-13T01:27:59.962Z,100.00
2022-09-13T01:30:37.900Z,100.00
2022-09-13T01:33:24.802Z,100.00
2022-09-13T01:35:54.368Z,100.00
2022-09-13T01:38:45.547Z,100.00
2022-09-13T01:41:42.658Z,100.00
2022-09-13T01:44:34.494Z,100.00
2022-09-13T01:47:27.640Z,100.00
2022-09-13T01:50:22.828Z,100.00
2022-09-13T01:53:10.200Z,100.00
2022-09-13T01:55:53.144Z,100.00
2022-09-13T01:58:35.240Z,100.00
2022-09-13T02:01:18.290Z,99.82
2022-09-13T02:03:52.938Z,99.72
2022-09-13T02:06:45.750Z,99.51
2022-09-13T02:09:21.286Z,99.57
2022-09-13T02:11:54.778Z,99.26
2022-09-13T02:14:44.309Z,99.45
2022-09-13T02:17:15.623Z,99.24
2022-09-13T02:19:57.341Z,98.98
2022-09-13T02:22:29.833Z,99.07
2022-09-13T02:25:01.980Z,99.27
2022-09-13T02:27:33.377Z,99.18
2022-09-13T02:30:11.427Z,99.08
2022-09-13T02:32:42.498Z,99.39
2022-09-13T02:35:16.643Z,99.36
2022-09-13T02:37:48.557Z,99.36
2022-09-13T02:40:22.742Z,99.25
2022-09-13T02:43:11.943Z,98.98
2022-09-13T02:45:54.985Z,99.15
2022-09-13T02:48:37.499Z,99.14
2022-09-13T02:51:24.041Z,99.03
2022-09-13T02:54:09.421Z,99.00
2022-09-13T02:57:08.469Z,99.03
2022-09-13T02:59:36.791Z,99.15
2022-09-13T03:02:22.856Z,98.98
2022-09-13T03:04:51.489Z,98.77
2022-09-13T03:07:18.138Z,98.76
2022-09-13T03:09:53.291Z,98.82
2022-09-13T03:12:47.529Z,99.03
2022-09-13T03:16:01.702Z,99.08
2022-09-13T03:19:17.152Z,98.98
2022-09-13T03:22:03.131Z,98.83
2022-09-13T03:24:50.225Z,98.50
2022-09-13T03:27:32.251Z,98.39
2022-09-13T03:30:12.531Z,98.48
2022-09-13T03:32:57.013Z,98.48
2022-09-13T03:35:36.093Z,98.39
2022-09-13T03:38:21.782Z,98.28
2022-09-13T03:40:53.513Z,97.95
2022-09-13T03:43:25.586Z,97.88
2022-09-13T03:45:57.746Z,97.89
2022-09-13T03:48:25.693Z,97.82
2022-09-13T03:50:52.904Z,97.96
2022-09-13T03:53:25.910Z,98.08
2022-09-13T03:55:53.153Z,98.44
2022-09-13T03:58:21.023Z,98.31
2022-09-13T04:00:48.008Z,98.49
2022-09-13T04:03:15.706Z,98.57
2022-09-13T04:05:42.399Z,98.57
2022-09-13T04:08:09.146Z,98.77
2022-09-13T04:10:37.667Z,98.75
2022-09-13T04:13:04.555Z,98.70
2022-09-13T04:15:31.339Z,98.70
2022-09-13T04:17:58.644Z,98.86
2022-09-13T04:20:25.972Z,99.08
2022-09-13T04:22:53.859Z,99.09
2022-09-13T04:25:22.179Z,98.73
2022-09-13T04:27:53.575Z,98.82
2022-09-13T04:30:21.586Z,98.74
2022-09-13T04:32:48.215Z,98.70
2022-09-13T04:35:18.110Z,98.63
2022-09-13T04:37:45.265Z,98.28
2022-09-13T04:40:13.221Z,98.21
2022-09-13T04:42:40.014Z,98.33
2022-09-13T04:45:08.168Z,98.27
2022-09-13T04:47:34.747Z,98.29
2022-09-13T04:50:01.573Z,98.37
2022-09-13T04:52:28.508Z,98.29
2022-09-13T04:54:55.227Z,98.56
2022-09-13T04:57:21.896Z,98.35
2022-09-13T04:59:48.939Z,98.27
2022-09-13T05:02:15.631Z,98.28
2022-09-13T05:04:42.363Z,98.09
2022-09-13T05:07:09.257Z,98.17
2022-09-13T05:09:35.884Z,98.19
2022-09-13T05:12:02.856Z,98.12
2022-09-13T05:14:29.923Z,98.11
2022-09-13T05:16:56.562Z,98.25
2022-09-13T05:19:23.204Z,98.11
2022-09-13T05:21:50.143Z,97.94
2022-09-13T05:24:16.765Z,97.86
2022-09-13T05:26:43.402Z,97.77
2022-09-13T05:29:10.435Z,98.00
2022-09-13T05:31:39.667Z,98.03
2022-09-13T05:34:10.534Z,98.28
2022-09-13T05:36:38.623Z,98.29
2022-09-13T05:39:29.083Z,97.85
2022-09-13T05:41:53.321Z,97.78
2022-09-13T05:44:20.046Z,97.65
2022-09-13T05:46:48.476Z,97.46
2022-09-13T05:49:15.832Z,97.53
2022-09-13T05:51:42.502Z,97.36
2022-09-13T05:54:12.226Z,97.30
2022-09-13T05:56:39.614Z,97.11
2022-09-13T05:59:06.405Z,97.01
2022-09-13T06:01:33.130Z,96.90
2022-09-13T06:04:00.649Z,96.96
2022-09-13T06:06:27.308Z,97.05
2022-09-13T06:08:55.352Z,96.94
2022-09-13T06:11:23.799Z,96.83
2022-09-13T06:13:50.536Z,96.58
2022-09-13T06:16:17.605Z,96.51
2022-09-13T06:18:45.219Z,96.80
2022-09-13T06:21:18.280Z,97.11
2022-09-13T06:23:53.484Z,97.06
2022-09-13T06:26:23.290Z,97.24
2022-09-13T06:28:52.395Z,97.11
2022-09-13T06:31:20.970Z,97.29
2022-09-13T06:36:20.467Z,96.77
2022-09-13T06:38:51.548Z,96.40
2022-09-13T06:41:21.981Z,96.06
2022-09-13T06:43:54.408Z,95.85
2022-09-13T06:46:24.921Z,95.37
2022-09-13T06:48:52.631Z,94.94
2022-09-13T06:51:21.331Z,94.51
2022-09-13T06:53:49.231Z,94.21
2022-09-13T06:56:30.881Z,94.02
2022-09-13T06:59:02.885Z,93.63
2022-09-13T07:01:31.746Z,94.09
2022-09-13T07:04:01.567Z,93.27
2022-09-13T07:06:31.090Z,93.54
2022-09-13T07:08:59.793Z,93.44
2022-09-13T07:11:30.116Z,93.08
2022-09-13T07:13:59.012Z,93.07
2022-09-13T07:16:30.832Z,92.83
2022-09-13T07:19:05.714Z,92.55
2022-09-13T07:21:34.324Z,92.34
2022-09-13T07:24:01.694Z,92.23
2022-09-13T07:26:28.669Z,92.47
2022-09-13T07:29:07.581Z,92.20
2022-09-13T07:31:35.915Z,92.12
2022-09-13T07:34:08.369Z,91.88
2022-09-13T07:36:36.378Z,91.77
2022-09-13T07:39:04.820Z,91.47
2022-09-13T07:41:33.331Z,91.10
2022-09-13T07:44:01.844Z,90.48
2022-09-13T07:46:33.873Z,89.77
2022-09-13T07:49:01.988Z,89.81
2022-09-13T07:51:37.326Z,89.53
2022-09-13T07:54:07.771Z,89.72
2022-09-13T07:56:37.119Z,89.50
2022-09-13T07:59:07.073Z,89.24
2022-09-13T08:01:37.307Z,88.42
2022-09-13T08:04:06.956Z,88.14
2022-09-13T08:06:35.721Z,88.01
2022-09-13T08:09:03.678Z,88.01
2022-09-13T08:11:42.341Z,87.87
2022-09-13T08:14:11.699Z,87.48
2022-09-13T08:16:41.955Z,87.16
2022-09-13T08:19:12.471Z,87.35
2022-09-13T08:21:40.892Z,87.72
2022-09-13T08:24:13.444Z,87.85
2022-09-13T08:26:40.429Z,88.18
2022-09-13T08:29:07.250Z,88.31
2022-09-13T08:31:34.678Z,88.61
2022-09-13T08:34:01.968Z,88.97
2022-09-13T08:36:29.471Z,89.04
2022-09-13T08:39:00.813Z,89.09
2022-09-13T08:41:40.121Z,89.08
2022-09-13T08:44:23.854Z,88.87
2022-09-13T08:46:53.247Z,89.13
2022-09-13T08:49:28.831Z,88.78
2022-09-13T08:52:28.357Z,88.94
2022-09-13T08:54:58.267Z,88.97
2022-09-13T08:57:38.250Z,88.03
2022-09-13T09:00:23.178Z,88.18
2022-09-13T09:02:56.024Z,88.02
2022-09-13T09:05:26.748Z,88.19
2022-09-13T09:07:59.399Z,88.41
2022-09-13T09:10:41.494Z,88.64
2022-09-13T09:13:14.974Z,88.89
2022-09-13T09:15:53.066Z,88.86
2022-09-13T09:18:24.404Z,89.02
2022-09-13T09:20:59.125Z,89.16
2022-09-13T09:23:37.456Z,89.12
2022-09-13T09:26:18.744Z,89.06
2022-09-13T09:28:55.641Z,88.86
2022-09-13T09:31:25.388Z,88.47
2022-09-13T09:34:01.091Z,88.10
2022-09-13T09:36:59.767Z,87.27
2022-09-13T09:39:33.334Z,87.58
2022-09-13T09:42:00.456Z,87.29
2022-09-13T09:44:33.833Z,87.48
2022-09-13T09:47:10.783Z,87.03
2022-09-13T09:50:06.290Z,87.07
2022-09-13T09:52:44.100Z,86.40
2022-09-13T09:55:25.601Z,86.06
2022-09-13T09:58:08.246Z,85.81
2022-09-13T10:00:39.527Z,85.55
2022-09-13T10:03:17.374Z,84.75
2022-09-13T10:05:46.281Z,84.63
2022-09-13T10:08:33.979Z,84.15
2022-09-13T10:11:02.136Z,84.32
2022-09-13T10:13:32.032Z,84.00
2022-09-13T10:16:03.598Z,84.10
2022-09-13T10:18:47.374Z,83.56
2022-09-13T10:21:17.138Z,84.41
2022-09-13T10:23:45.845Z,83.77
2022-09-13T10:26:19.358Z,83.76
2022-09-13T10:28:52.397Z,83.65
2022-09-13T10:31:21.362Z,83.39
2022-09-13T10:33:51.772Z,82.84
2022-09-13T10:36:50.541Z,82.79
2022-09-13T10:39:18.707Z,82.60
2022-09-13T10:42:05.806Z,82.51
2022-09-13T10:44:44.836Z,82.65
2022-09-13T10:47:20.041Z,82.56
2022-09-13T10:49:51.518Z,82.53
2022-09-13T10:52:42.443Z,82.26
2022-09-13T10:55:18.839Z,82.71
2022-09-13T10:57:47.847Z,82.55
2022-09-13T11:00:21.561Z,82.61
2022-09-13T11:03:25.261Z,82.79
2022-09-13T11:06:06.049Z,82.84
2022-09-13T11:08:46.511Z,83.22
2022-09-13T11:11:47.665Z,83.20
2022-09-13T11:14:40.325Z,83.52
2022-09-13T11:17:55.394Z,83.24
2022-09-13T11:21:13.046Z,83.19
2022-09-13T11:24:08.029Z,82.98
2022-09-13T11:26:42.265Z,82.54
2022-09-13T11:29:19.983Z,82.21
2022-09-13T11:31:58.390Z,82.46
2022-09-13T11:34:52.371Z,82.39
2022-09-13T11:37:26.740Z,82.53
2022-09-13T11:40:08.978Z,82.33
2022-09-13T11:42:47.788Z,82.57
2022-09-13T11:45:22.026Z,81.66
2022-09-13T11:48:07.967Z,81.85
2022-09-13T11:50:38.198Z,81.74
2022-09-13T11:53:11.600Z,81.67
2022-09-13T11:55:46.107Z,81.56
2022-09-13T11:58:19.727Z,81.25
2022-09-13T12:00:50.996Z,81.02
2022-09-13T12:03:30.506Z,81.03
2022-09-13T12:06:03.065Z,81.24
2022-09-13T12:08:35.538Z,81.74
2022-09-13T12:11:16.212Z,81.46
2022-09-13T12:13:49.345Z,81.35
2022-09-13T12:16:48.710Z,81.34
2022-09-13T12:19:25.965Z,81.61
2022-09-13T12:21:57.055Z,81.55
2022-09-13T12:24:50.484Z,81.87
2022-09-13T12:27:40.110Z,81.90
2022-09-13T12:30:22.346Z,82.57
2022-09-13T12:32:51.958Z,82.29
2022-09-13T12:35:26.740Z,82.20
2022-09-13T12:38:15.771Z,82.50
2022-09-13T12:41:16.690Z,82.55
2022-09-13T12:44:24.828Z,82.62
2022-09-13T12:47:21.969Z,82.27
2022-09-13T12:53:29.043Z,82.31
2022-09-13T12:56:26.980Z,82.55
2022-09-13T12:59:18.446Z,82.36
2022-09-13T13:01:48.533Z,82.65
2022-09-13T13:04:35.432Z,83.17
2022-09-13T13:07:05.075Z,83.00
2022-09-13T13:09:42.717Z,83.15
2022-09-13T13:12:27.645Z,83.34
2022-09-13T13:14:55.524Z,83.19
2022-09-13T13:17:48.525Z,83.27
2022-09-13T13:21:03.433Z,83.26
2022-09-13T13:23:39.175Z,83.45
2022-09-13T13:26:07.814Z,83.39
2022-09-13T13:28:52.094Z,83.72
2022-09-13T13:31:22.128Z,83.67
2022-09-13T13:33:52.875Z,83.82
2022-09-13T13:36:25.045Z,83.93
2022-09-13T13:38:53.750Z,84.18
2022-09-13T13:41:32.800Z,84.32
2022-09-13T13:44:22.446Z,85.05
2022-09-13T13:47:15.403Z,84.70
2022-09-13T13:50:00.364Z,84.75
2022-09-13T13:52:27.398Z,84.42
2022-09-13T13:54:54.159Z,84.64
2022-09-13T13:57:20.871Z,84.72
2022-09-13T13:59:50.886Z,84.94
2022-09-13T14:02:23.187Z,84.85
2022-09-13T14:05:15.672Z,84.62
2022-09-13T14:08:19.886Z,84.60
2022-09-13T14:10:52.839Z,84.53
2022-09-13T14:13:42.380Z,84.44
2022-09-13T14:16:24.804Z,84.65
2022-09-13T14:19:14.459Z,84.52
2022-09-13T14:21:42.505Z,84.78
2022-09-13T14:24:26.247Z,84.86
2022-09-13T14:26:57.934Z,85.13
2022-09-13T14:29:26.250Z,85.63
2022-09-13T14:32:01.194Z,85.50
2022-09-13T14:34:30.598Z,85.57
2022-09-13T14:37:00.976Z,85.54
2022-09-13T14:39:29.071Z,86.46
2022-09-13T14:42:16.654Z,86.80
2022-09-13T14:44:45.702Z,86.98
2022-09-13T14:47:16.493Z,87.41
2022-09-13T14:49:49.873Z,87.67
2022-09-13T14:52:29.082Z,88.10
2022-09-13T14:55:01.291Z,88.11
2022-09-13T14:57:36.884Z,88.09
2022-09-13T15:00:19.748Z,87.43
2022-09-13T15:02:52.782Z,87.45
2022-09-13T15:05:22.768Z,87.58
2022-09-13T15:07:49.627Z,87.71
2022-09-13T15:10:24.650Z,87.76
2022-09-13T15:12:53.822Z,87.86
2022-09-13T15:15:38.740Z,87.83
2022-09-13T15:18:05.710Z,87.93
2022-09-13T15:20:46.959Z,88.13
2022-09-13T15:23:29.253Z,88.64
2022-09-13T15:26:06.611Z,88.53
2022-09-13T15:28:48.989Z,88.19
2022-09-13T15:31:22.773Z,88.76
2022-09-13T15:34:13.851Z,88.30
2022-09-13T15:36:40.668Z,89.27
2022-09-13T15:39:07.568Z,89.40
2022-09-13T15:41:36.701Z,89.60
2022-09-13T15:44:06.734Z,89.10
2022-09-13T15:46:48.209Z,88.96
2022-09-13T15:49:18.663Z,89.40
2022-09-13T15:51:45.661Z,89.14
2022-09-13T15:54:14.570Z,89.21
2022-09-13T15:56:46.980Z,89.40
2022-09-13T15:59:15.872Z,89.66
2022-09-13T16:01:43.716Z,89.81
2022-09-13T16:04:12.071Z,90.15
2022-09-13T16:06:39.570Z,90.25
2022-09-13T16:09:27.350Z,90.35
2022-09-13T16:11:54.657Z,90.61
2022-09-13T16:14:21.999Z,90.70
2022-09-13T16:16:49.297Z,91.00
2022-09-13T16:19:20.222Z,90.81
2022-09-13T16:21:47.951Z,90.64
2022-09-13T16:24:14.941Z,90.32
2022-09-13T16:26:43.132Z,90.33
2022-09-13T16:29:13.141Z,90.05
2022-09-13T16:31:39.984Z,90.18
2022-09-13T16:34:07.352Z,89.76
2022-09-13T16:36:34.341Z,89.57
2022-09-13T16:39:01.409Z,89.39
2022-09-13T16:41:28.605Z,89.37
2022-09-13T16:43:56.598Z,89.57
2022-09-13T16:46:23.450Z,89.66
2022-09-13T16:48:54.675Z,89.71
2022-09-13T16:51:22.369Z,90.12
2022-09-13T16:53:51.398Z,90.26
2022-09-13T16:56:22.421Z,90.72
2022-09-13T16:58:50.666Z,90.94
2022-09-13T17:01:20.973Z,91.27
2022-09-13T17:03:50.847Z,91.69
2022-09-13T17:06:21.883Z,91.93
2022-09-13T17:08:52.641Z,92.35
2022-09-13T17:11:21.470Z,93.02
2022-09-13T17:13:48.453Z,92.99
2022-09-13T17:16:22.326Z,93.34
2022-09-13T17:18:49.247Z,93.23
2022-09-13T17:21:16.794Z,93.26
2022-09-13T17:23:43.506Z,93.67
2022-09-13T17:26:11.335Z,93.58
2022-09-13T17:28:38.579Z,93.46
2022-09-13T17:31:05.700Z,93.59
2022-09-13T17:33:32.626Z,93.23
2022-09-13T17:36:07.495Z,93.29
2022-09-13T17:38:35.544Z,93.20
2022-09-13T17:41:11.668Z,93.20
2022-09-13T17:43:39.850Z,93.22
2022-09-13T17:46:10.319Z,92.98
2022-09-13T17:48:37.461Z,92.86
2022-09-13T17:51:10.284Z,92.79
2022-09-13T17:53:41.380Z,92.45
2022-09-13T17:56:08.632Z,92.57
2022-09-13T17:58:35.699Z,92.57
2022-09-13T18:01:04.356Z,92.53
2022-09-13T18:03:31.885Z,92.46
2022-09-13T18:05:59.791Z,92.58
2022-09-13T18:08:28.020Z,92.58
2022-09-13T18:11:12.120Z,92.64
2022-09-13T18:13:41.028Z,92.69
2022-09-13T18:16:11.291Z,92.54
2022-09-13T18:18:43.687Z,92.47
2022-09-13T18:21:10.886Z,92.65
2022-09-13T18:23:37.584Z,92.76
2022-09-13T18:26:23.363Z,92.51
2022-09-13T18:28:56.222Z,92.67
2022-09-13T18:31:24.493Z,92.73
2022-09-13T18:33:57.583Z,92.78
2022-09-13T18:36:25.484Z,92.86
2022-09-13T18:38:53.255Z,92.83
2022-09-13T18:41:22.076Z,92.73
2022-09-13T18:43:55.450Z,92.63
2022-09-13T18:46:25.560Z,92.80
2022-09-13T18:48:54.550Z,92.61
2022-09-13T18:51:23.065Z,93.02
2022-09-13T18:53:51.613Z,92.97
2022-09-13T18:56:22.834Z,93.08
2022-09-13T18:58:49.823Z,93.28
2022-09-13T19:01:20.011Z,93.29
2022-09-13T19:03:56.593Z,93.28
2022-09-13T19:06:26.271Z,93.43
2022-09-13T19:08:54.588Z,93.11
2022-09-13T19:11:45.869Z,92.90
2022-09-13T19:14:13.038Z,92.75
2022-09-13T19:16:40.019Z,92.69
2022-09-13T19:19:06.673Z,92.93
2022-09-13T19:21:33.874Z,93.18
2022-09-13T19:24:05.220Z,93.10
2022-09-13T19:26:38.309Z,93.16
2022-09-13T19:29:07.857Z,93.50
2022-09-13T19:31:37.396Z,93.30
2022-09-13T19:34:06.269Z,93.12
2022-09-13T19:36:36.546Z,92.98
2022-09-13T19:39:05.790Z,93.08
2022-09-13T19:41:33.313Z,93.01
2022-09-13T19:44:03.848Z,93.21
2022-09-13T19:46:37.769Z,93.08
2022-09-13T19:49:06.311Z,93.25
2022-09-13T19:51:35.988Z,93.32
2022-09-13T19:54:04.601Z,93.35
2022-09-13T19:56:38.067Z,92.92
2022-09-13T19:59:06.424Z,92.95
2022-09-13T20:01:44.866Z,92.79
2022-09-13T20:04:17.871Z,93.05
2022-09-13T20:06:46.635Z,93.42
2022-09-13T20:09:16.188Z,93.44
2022-09-13T20:11:47.387Z,93.12
2022-09-13T20:14:17.550Z,93.22
2022-09-13T20:16:45.175Z,93.37
2022-09-13T20:22:08.891Z,93.51
2022-09-13T20:24:35.796Z,93.69
2022-09-13T20:27:03.046Z,93.87
2022-09-13T20:29:31.684Z,93.92
2022-09-13T20:31:59.602Z,93.99
2022-09-13T20:34:27.292Z,93.90
2022-09-13T20:36:54.356Z,94.00
2022-09-13T20:39:20.989Z,94.18
2022-09-13T20:41:49.918Z,94.30
2022-09-13T20:44:17.012Z,94.09
2022-09-13T20:46:45.058Z,94.20
2022-09-13T20:49:11.867Z,94.23
2022-09-13T20:51:39.075Z,94.32
2022-09-13T20:54:06.419Z,94.45
2022-09-13T20:56:34.467Z,94.36
2022-09-13T20:59:02.151Z,94.19
2022-09-13T21:01:31.248Z,94.40
2022-09-13T21:03:58.832Z,94.70
2022-09-13T21:06:28.622Z,94.72
2022-09-13T21:08:56.376Z,94.94
2022-09-13T21:11:25.776Z,95.13
2022-09-13T21:13:55.180Z,95.30
2022-09-13T21:16:28.835Z,95.46
2022-09-13T21:18:56.588Z,95.44
2022-09-13T21:21:30.149Z,95.70
2022-09-13T21:23:58.438Z,95.69
2022-09-13T21:26:27.007Z,95.67
2022-09-13T21:28:55.492Z,95.58
2022-09-13T21:31:30.977Z,95.70
2022-09-13T21:34:00.225Z,96.00
2022-09-13T21:36:27.980Z,95.93
2022-09-13T21:38:55.830Z,95.77
2022-09-13T21:41:24.293Z,95.70
2022-09-13T21:43:51.791Z,95.69
2022-09-13T21:46:20.983Z,95.73
2022-09-13T21:48:52.882Z,95.69
2022-09-13T21:51:21.229Z,95.56
2022-09-13T21:53:49.806Z,95.68
2022-09-13T21:56:19.231Z,95.73
2022-09-13T21:58:58.313Z,95.54
2022-09-13T22:01:26.648Z,95.55
2022-09-13T22:03:54.118Z,95.31
2022-09-13T22:06:22.305Z,95.35
2022-09-13T22:08:51.550Z,95.39
2022-09-13T22:11:22.446Z,95.49
2022-09-13T22:13:50.090Z,95.30
2022-09-13T22:16:22.571Z,95.45
2022-09-13T22:18:52.385Z,95.35
2022-09-13T22:21:23.073Z,95.25
2022-09-13T22:23:50.154Z,95.24
2022-09-13T22:26:25.739Z,95.17
2022-09-13T22:28:54.520Z,95.26
2022-09-13T22:31:24.077Z,95.09
2022-09-13T22:33:51.978Z,95.10
2022-09-13T22:36:19.470Z,94.90
2022-09-13T22:38:50.889Z,94.81
2022-09-13T22:41:23.400Z,94.52
2022-09-13T22:43:50.191Z,94.45
2022-09-13T22:46:18.650Z,94.64
2022-09-13T22:48:46.404Z,94.52
2022-09-13T22:51:15.542Z,94.61
2022-09-13T22:53:44.521Z,94.74
2022-09-13T22:56:17.519Z,94.51
2022-09-13T22:58:44.522Z,94.55
2022-09-13T23:01:17.437Z,94.59
2022-09-13T23:03:46.115Z,94.40
2022-09-13T23:06:15.673Z,94.37
2022-09-13T23:08:42.429Z,94.43
2022-09-13T23:11:14.068Z,94.46
2022-09-13T23:13:41.329Z,94.39
2022-09-13T23:16:13.210Z,94.43
2022-09-13T23:18:39.902Z,94.48
2022-09-13T23:21:06.846Z,94.39
2022-09-13T23:23:33.559Z,94.23
2022-09-13T23:26:09.054Z,94.36
2022-09-13T23:28:37.751Z,94.56
2022-09-13T23:31:19.450Z,94.77
2022-09-13T23:33:51.794Z,94.73
2022-09-13T23:36:20.935Z,94.79
2022-09-13T23:38:50.710Z,94.79
2022-09-13T23:41:18.287Z,94.92
2022-09-13T23:43:45.066Z,95.12
2022-09-13T23:46:12.684Z,95.37
2022-09-13T23:48:39.839Z,95.46
2022-09-13T23:51:09.526Z,95.55
2022-09-13T23:53:37.617Z,95.30
2022-09-13T23:56:07.299Z,95.33
2022-09-13T23:58:35.249Z,95.41
